Time;durP1;ratioP1;P1;durP2;ratioP2;P2;SDS_P1;SDS_P2;PMS_P1;PMS_P2;Temp;Humidity;BMP_temperature;BMP_pressure;BME280_temperature;BME280_humidity;BME280_pressure;Samples;Min_cycle;Max_cycle;Signal;HPM_P1;HPM_P2
2022/12/31 00:01:24;;;;;;;6.32;5.07;;;14.30;96.70;;;;;;4909857;29;20052;-74
2022/12/31 00:03:54;;;;;;;7.22;5.50;;;14.30;96.70;;;;;;4920940;29;20043;-75
2022/12/31 00:06:26;;;;;;;5.50;4.05;;;14.30;96.70;;;;;;4896495;29;20134;-75
2022/12/31 00:08:55;;;;;;;5.18;4.40;;;14.30;96.70;;;;;;4903806;29;20055;-75
2022/12/31 00:11:25;;;;;;;6.35;5.20;;;14.30;96.70;;;;;;4904214;29;20044;-74
2022/12/31 00:13:53;;;;;;;8.65;5.95;;;14.30;96.70;;;;;;4913082;29;20083;-74
2022/12/31 00:16:23;;;;;;;8.63;5.70;;;14.30;96.70;;;;;;4918645;29;20036;-75
2022/12/31 00:18:53;;;;;;;5.00;4.40;;;14.30;96.70;;;;;;4898602;29;20058;-74
2022/12/31 00:21:22;;;;;;;6.47;4.30;;;14.30;96.70;;;;;;4920958;29;20130;-75
2022/12/31 00:23:51;;;;;;;4.53;4.07;;;14.30;96.70;;;;;;4900284;29;20043;-74
2022/12/31 00:26:20;;;;;;;4.30;3.90;;;14.20;96.70;;;;;;4894680;29;20339;-75
2022/12/31 00:28:48;;;;;;;6.63;4.03;;;14.20;96.70;;;;;;4901083;29;20166;-74
2022/12/31 00:31:17;;;;;;;4.97;4.32;;;14.30;96.70;;;;;;4904097;29;20059;-74
2022/12/31 00:33:46;;;;;;;5.35;4.07;;;14.30;96.70;;;;;;4908000;29;20075;-76
2022/12/31 00:36:15;;;;;;;5.03;3.95;;;14.30;96.70;;;;;;4904801;29;20118;-76
2022/12/31 00:38:46;;;;;;;4.03;3.60;;;14.30;96.70;;;;;;4901385;29;20044;-76
2022/12/31 00:41:15;;;;;;;3.60;3.17;;;14.20;96.70;;;;;;4901909;29;20052;-76
2022/12/31 00:43:43;;;;;;;3.92;2.95;;;14.30;96.70;;;;;;4893407;29;20213;-76
2022/12/31 00:46:11;;;;;;;4.13;3.08;;;14.30;96.70;;;;;;4893690;29;20036;-76
2022/12/31 00:48:39;;;;;;;5.05;3.13;;;14.20;96.70;;;;;;4875087;29;20040;-76
2022/12/31 00:51:10;;;;;;;3.38;3.03;;;14.30;96.70;;;;;;4890419;29;20496;-76
2022/12/31 00:53:38;;;;;;;3.42;3.05;;;14.20;96.70;;;;;;4894416;29;20176;-76
2022/12/31 00:56:10;;;;;;;3.40;3.08;;;14.20;96.70;;;;;;4893466;29;20068;-76
2022/12/31 00:58:38;;;;;;;3.30;2.97;;;14.20;96.70;;;;;;4894729;29;20415;-75
2022/12/31 01:01:10;;;;;;;3.40;2.78;;;14.20;96.70;;;;;;4894935;29;20048;-77
2022/12/31 01:03:38;;;;;;;3.45;2.78;;;14.20;96.70;;;;;;4895014;29;20044;-76
2022/12/31 01:06:06;;;;;;;3.53;2.72;;;14.20;96.70;;;;;;4915110;29;20051;-77
2022/12/31 01:08:35;;;;;;;3.42;2.63;;;14.20;96.70;;;;;;4912715;29;20040;-76
2022/12/31 01:11:18;;;;;;;3.38;2.90;;;14.20;96.70;;;;;;4883345;29;20098;-76
2022/12/31 01:13:48;;;;;;;6.47;3.50;;;14.20;96.70;;;;;;4893167;29;20059;-75
2022/12/31 01:16:20;;;;;;;4.32;3.00;;;14.20;96.70;;;;;;4892997;29;20048;-76
2022/12/31 01:18:49;;;;;;;3.05;2.80;;;14.20;96.70;;;;;;4894599;29;20071;-76
2022/12/31 01:21:17;;;;;;;5.55;3.75;;;14.20;96.70;;;;;;4892644;29;20612;-76
2022/12/31 01:23:45;;;;;;;6.20;5.60;;;14.20;96.70;;;;;;4898638;29;20479;-76
2022/12/31 01:26:15;;;;;;;5.05;3.75;;;14.20;96.70;;;;;;4891640;29;20076;-76
2022/12/31 01:28:43;;;;;;;4.60;4.20;;;14.20;96.70;;;;;;4892843;29;20063;-76
2022/12/31 01:31:14;;;;;;;4.60;4.15;;;14.20;96.70;;;;;;4918092;29;20052;-76
2022/12/31 01:33:42;;;;;;;3.47;3.13;;;14.20;96.70;;;;;;4925232;29;20047;-76
2022/12/31 01:36:12;;;;;;;3.80;3.45;;;14.20;96.70;;;;;;4899338;29;20051;-76
2022/12/31 01:38:40;;;;;;;5.75;3.00;;;14.20;96.70;;;;;;4894817;29;20056;-75
2022/12/31 01:41:11;;;;;;;4.68;2.92;;;14.20;96.70;;;;;;4917096;29;20055;-76
2022/12/31 01:43:46;;;;;;;3.65;3.03;;;14.20;96.70;;;;;;4905076;29;20076;-76
2022/12/31 01:46:22;;;;;;;4.57;2.85;;;14.20;96.70;;;;;;4909416;29;20142;-76
2022/12/31 01:48:53;;;;;;;3.47;3.17;;;14.30;96.70;;;;;;4890161;29;20051;-76
2022/12/31 01:51:22;;;;;;;3.50;3.08;;;14.20;96.70;;;;;;4888478;29;20044;-76
2022/12/31 01:53:51;;;;;;;3.80;2.88;;;14.20;96.70;;;;;;4912178;29;20068;-76
2022/12/31 01:56:21;;;;;;;3.72;2.90;;;14.20;96.70;;;;;;4911324;29;20151;-77
2022/12/31 01:58:51;;;;;;;3.45;3.15;;;14.30;96.70;;;;;;4891929;29;20052;-75
2022/12/31 02:01:26;;;;;;;3.65;3.28;;;14.20;96.70;;;;;;4890083;29;20063;-75
2022/12/31 02:03:55;;;;;;;4.22;3.65;;;14.30;96.70;;;;;;4904498;29;20133;-74
2022/12/31 02:06:28;;;;;;;5.03;3.30;;;14.20;96.70;;;;;;4901472;29;20043;-74
2022/12/31 02:08:57;;;;;;;4.28;3.30;;;14.20;96.70;;;;;;4901921;29;20059;-73
2022/12/31 02:11:27;;;;;;;4.00;3.10;;;14.20;96.70;;;;;;4913345;29;20052;-73
2022/12/31 02:13:57;;;;;;;5.78;2.95;;;14.20;96.70;;;;;;4896774;29;20056;-73
2022/12/31 02:16:34;;;;;;;4.55;2.90;;;14.20;96.70;;;;;;4909283;29;20046;-73
2022/12/31 02:19:19;;;;;;;4.07;2.50;;;14.20;96.70;;;;;;4894563;29;20423;-73
2022/12/31 02:21:59;;;;;;;3.42;2.35;;;14.20;96.70;;;;;;4916402;29;20049;-73
2022/12/31 02:24:53;;;;;;;4.03;2.58;;;14.20;96.70;;;;;;4913082;29;20108;-73
2022/12/31 02:27:51;;;;;;;4.10;2.50;;;14.20;96.70;;;;;;4894120;29;20550;-73
2022/12/31 02:30:21;;;;;;;;;;;14.10;96.70;;;;;;4906847;29;20044;-73
2022/12/31 02:33:00;;;;;;;3.35;2.10;;;14.10;96.70;;;;;;4892607;29;19934;-73
2022/12/31 02:35:32;;;;;;;2.95;2.50;;;14.10;96.70;;;;;;4893357;29;20547;-73
2022/12/31 02:38:04;;;;;;;3.65;2.50;;;14.10;96.70;;;;;;4900274;29;20099;-73
2022/12/31 02:40:35;;;;;;;2.60;1.92;;;14.10;96.70;;;;;;4921152;29;20107;-73
2022/12/31 02:43:04;;;;;;;3.60;2.00;;;14.10;96.70;;;;;;4920225;29;20130;-74
2022/12/31 02:45:36;;;;;;;3.78;1.92;;;14.10;96.70;;;;;;4919055;29;20522;-76
2022/12/31 02:48:24;;;;;;;4.15;2.03;;;14.10;96.70;;;;;;4892058;29;20541;-75
2022/12/31 02:51:03;;;;;;;3.53;2.30;;;14.10;96.70;;;;;;4892178;29;20070;-76
2022/12/31 02:54:04;;;;;;;3.05;2.00;;;14.10;96.70;;;;;;4889967;29;20080;-75
2022/12/31 02:56:38;;;;;;;3.13;2.10;;;14.10;96.70;;;;;;4895313;29;20047;-75
2022/12/31 03:02:14;;;;;;;3.83;2.38;;;14.10;96.70;;;;;;4906277;29;20047;-76
2022/12/31 03:04:48;;;;;;;3.15;2.25;;;14.10;96.70;;;;;;4908981;29;20048;-76
2022/12/31 03:07:20;;;;;;;2.83;2.13;;;14.00;96.70;;;;;;4907936;29;20044;-75
2022/12/31 03:09:48;;;;;;;2.25;2.00;;;14.00;96.70;;;;;;4893624;29;20056;-76
2022/12/31 03:15:18;;;;;;;4.60;2.25;;;14.00;96.70;;;;;;4908169;29;20131;-76
2022/12/31 03:17:55;;;;;;;2.97;2.10;;;14.00;96.70;;;;;;4905527;29;20850;-77
2022/12/31 03:23:19;;;;;;;2.78;2.15;;;14.00;96.70;;;;;;4917731;29;20135;-73
2022/12/31 03:25:47;;;;;;;3.38;2.33;;;14.00;96.70;;;;;;4908573;29;20051;-73
2022/12/31 03:28:18;;;;;;;6.05;2.50;;;14.00;96.70;;;;;;4898552;29;20407;-73
2022/12/31 03:30:48;;;;;;;2.80;2.10;;;14.00;96.70;;;;;;4910180;29;20058;-73
2022/12/31 03:33:18;;;;;;;4.97;2.92;;;14.00;96.70;;;;;;4911360;29;20048;-73
2022/12/31 03:35:47;;;;;;;2.92;2.50;;;14.00;96.70;;;;;;4897944;29;20135;-73
2022/12/31 03:38:15;;;;;;;5.03;2.90;;;14.00;96.70;;;;;;4895129;29;20462;-74
2022/12/31 03:40:45;;;;;;;4.97;2.90;;;14.00;96.70;;;;;;4895748;29;20044;-73
2022/12/31 03:43:14;;;;;;;2.75;2.53;;;14.00;96.70;;;;;;4914496;29;20104;-73
2022/12/31 03:45:42;;;;;;;3.88;2.53;;;14.00;96.70;;;;;;4896137;29;20044;-72
2022/12/31 03:48:10;;;;;;;5.05;2.83;;;14.10;96.70;;;;;;4898634;29;20104;-72
2022/12/31 03:50:39;;;;;;;4.93;2.90;;;14.10;96.70;;;;;;4893920;29;20460;-72
2022/12/31 03:53:08;;;;;;;3.45;2.78;;;14.10;96.70;;;;;;4892433;29;20143;-72
2022/12/31 03:55:36;;;;;;;3.90;3.17;;;14.10;96.70;;;;;;4891777;29;20077;-72
2022/12/31 03:58:04;;;;;;;4.72;2.95;;;14.10;96.70;;;;;;4892960;29;20388;-72
2022/12/31 04:00:32;;;;;;;4.18;2.85;;;14.10;96.70;;;;;;4894678;29;20388;-72
2022/12/31 04:03:00;;;;;;;7.70;3.58;;;14.10;96.70;;;;;;4896435;29;20052;-71
2022/12/31 04:05:28;;;;;;;6.40;3.13;;;14.10;96.70;;;;;;4890469;29;20135;-72
2022/12/31 04:07:58;;;;;;;4.57;3.17;;;14.10;96.70;;;;;;4893394;29;20147;-72
2022/12/31 04:10:26;;;;;;;6.07;3.30;;;14.10;96.70;;;;;;4898687;29;20048;-72
2022/12/31 04:12:54;;;;;;;9.45;3.58;;;14.10;96.70;;;;;;4892108;29;20048;-72
2022/12/31 04:15:22;;;;;;;3.42;3.00;;;14.10;96.70;;;;;;4896481;29;20123;-72
2022/12/31 04:17:50;;;;;;;4.47;2.97;;;14.00;96.70;;;;;;4903174;29;20048;-72
2022/12/31 04:20:19;;;;;;;6.55;3.80;;;14.10;96.70;;;;;;4894537;29;20518;-72
2022/12/31 04:22:48;;;;;;;6.70;3.60;;;14.00;96.70;;;;;;4891649;29;20092;-73
2022/12/31 04:25:18;;;;;;;4.85;3.80;;;14.00;96.70;;;;;;4876839;29;20053;-74
2022/12/31 04:27:47;;;;;;;5.75;3.88;;;14.00;96.70;;;;;;4888495;29;20060;-74
2022/12/31 04:30:15;;;;;;;5.90;4.13;;;14.00;96.70;;;;;;4895920;29;20555;-75
2022/12/31 04:32:43;;;;;;;6.10;4.13;;;14.00;96.70;;;;;;4891579;29;20756;-74
2022/12/31 04:35:11;;;;;;;6.35;3.78;;;14.00;96.70;;;;;;4894902;29;20096;-74
2022/12/31 04:37:40;;;;;;;5.88;3.83;;;14.00;96.70;;;;;;4897146;29;20065;-74
2022/12/31 04:40:08;;;;;;;5.07;3.70;;;13.90;96.70;;;;;;4891534;29;20058;-74
2022/12/31 04:42:38;;;;;;;5.00;4.40;;;13.90;96.70;;;;;;4887635;29;20068;-74
2022/12/31 04:45:07;;;;;;;6.22;3.92;;;13.90;96.70;;;;;;4903343;29;20141;-74
2022/12/31 04:47:35;;;;;;;5.80;3.70;;;14.00;96.70;;;;;;4906093;29;20057;-75
2022/12/31 04:50:04;;;;;;;5.00;4.00;;;14.00;96.70;;;;;;4910878;29;20522;-75
2022/12/31 04:52:32;;;;;;;4.80;3.53;;;14.00;96.70;;;;;;4914904;29;20048;-74
2022/12/31 04:55:09;;;;;;;4.97;3.30;;;13.90;96.70;;;;;;4897843;29;20056;-74
2022/12/31 04:57:40;;;;;;;6.25;3.95;;;13.90;96.70;;;;;;4892661;29;20044;-74
2022/12/31 05:00:09;;;;;;;4.72;3.78;;;14.00;96.70;;;;;;4891282;29;20044;-74
2022/12/31 05:02:37;;;;;;;6.63;4.22;;;14.00;96.70;;;;;;4908057;29;20044;-74
2022/12/31 05:05:06;;;;;;;6.93;4.10;;;14.00;96.70;;;;;;4891801;29;20048;-75
2022/12/31 05:07:34;;;;;;;5.70;3.70;;;14.00;96.70;;;;;;4911897;29;20051;-74
2022/12/31 05:10:03;;;;;;;5.43;3.88;;;14.00;96.70;;;;;;4898987;29;20083;-74
2022/12/31 05:12:31;;;;;;;4.82;3.70;;;14.00;96.70;;;;;;4881260;29;20494;-74
2022/12/31 05:15:01;;;;;;;4.18;3.42;;;14.00;96.70;;;;;;4900393;29;20093;-74
2022/12/31 05:17:29;;;;;;;5.32;4.07;;;14.00;96.70;;;;;;4895980;29;20556;-74
2022/12/31 05:19:57;;;;;;;5.43;4.22;;;14.00;96.70;;;;;;4901936;29;20047;-74
2022/12/31 05:22:28;;;;;;;6.45;3.83;;;13.90;96.70;;;;;;4898107;29;20052;-75
2022/12/31 05:24:56;;;;;;;5.63;4.07;;;13.90;96.70;;;;;;4899951;29;20099;-74
2022/12/31 05:27:25;;;;;;;5.53;4.40;;;13.90;96.70;;;;;;4900246;29;20058;-74
2022/12/31 05:29:53;;;;;;;5.53;5.03;;;13.90;96.70;;;;;;4909139;29;20154;-74
2022/12/31 05:32:23;;;;;;;7.38;4.70;;;14.00;96.70;;;;;;4890019;29;20159;-74
2022/12/31 05:34:52;;;;;;;8.48;5.00;;;13.90;96.70;;;;;;4890524;29;20048;-74
2022/12/31 05:37:20;;;;;;;7.80;5.22;;;13.90;96.70;;;;;;4909813;29;20044;-74
2022/12/31 05:39:48;;;;;;;6.43;5.40;;;13.90;96.70;;;;;;4880434;29;20151;-74
2022/12/31 05:42:16;;;;;;;8.35;5.85;;;13.90;96.70;;;;;;4893994;29;20091;-74
2022/12/31 05:44:44;;;;;;;6.75;5.13;;;13.90;96.70;;;;;;4897190;29;20056;-74
2022/12/31 05:47:13;;;;;;;6.70;5.32;;;13.90;96.70;;;;;;4908548;29;20440;-74
2022/12/31 05:49:43;;;;;;;7.72;4.63;;;13.90;96.70;;;;;;4897214;29;20047;-74
2022/12/31 05:52:11;;;;;;;11.45;5.18;;;13.90;96.70;;;;;;4898758;29;20071;-74
2022/12/31 05:54:39;;;;;;;8.02;5.53;;;13.90;96.70;;;;;;4909278;29;20044;-74
2022/12/31 05:57:07;;;;;;;8.38;5.05;;;13.90;96.70;;;;;;4891469;29;20878;-75
2022/12/31 05:59:36;;;;;;;8.63;5.00;;;13.90;96.70;;;;;;4911733;29;20071;-74
2022/12/31 06:02:04;;;;;;;7.80;5.13;;;13.90;96.70;;;;;;4907859;29;20119;-74
2022/12/31 06:04:33;;;;;;;6.38;4.85;;;13.90;96.70;;;;;;4879688;29;20052;-74
2022/12/31 06:07:03;;;;;;;7.05;4.53;;;13.90;96.70;;;;;;4895312;29;20048;-74
2022/12/31 06:09:31;;;;;;;7.78;4.50;;;13.90;96.70;;;;;;4897911;29;20068;-74
2022/12/31 06:11:59;;;;;;;6.72;4.20;;;13.90;96.70;;;;;;4891856;29;20784;-74
2022/12/31 06:14:27;;;;;;;5.07;3.92;;;13.90;96.70;;;;;;4901062;29;20048;-74
2022/12/31 06:16:55;;;;;;;6.93;4.70;;;13.90;96.70;;;;;;4891294;29;20063;-74
2022/12/31 06:19:23;;;;;;;6.55;4.75;;;13.90;96.70;;;;;;4915945;29;20048;-74
2022/12/31 06:21:51;;;;;;;7.45;4.57;;;13.90;96.70;;;;;;4890847;29;20075;-74
2022/12/31 06:24:20;;;;;;;6.53;3.90;;;13.90;96.70;;;;;;4914505;29;20050;-74
2022/12/31 06:26:49;;;;;;;7.35;4.15;;;13.90;96.70;;;;;;4914870;29;20967;-74
2022/12/31 06:29:17;;;;;;;5.65;4.22;;;13.90;96.70;;;;;;4891262;29;20044;-74
2022/12/31 06:31:46;;;;;;;6.55;4.35;;;13.90;96.70;;;;;;4892858;29;20058;-74
2022/12/31 06:34:14;;;;;;;6.88;4.50;;;13.90;96.70;;;;;;4914667;29;20118;-74
2022/12/31 06:36:42;;;;;;;6.72;4.57;;;13.90;96.70;;;;;;4909780;29;20040;-74
2022/12/31 06:39:10;;;;;;;5.88;4.38;;;13.90;96.70;;;;;;4899526;29;20095;-75
2022/12/31 06:41:39;;;;;;;7.10;4.10;;;13.90;96.70;;;;;;4873326;29;20162;-74
2022/12/31 06:44:07;;;;;;;5.57;4.20;;;13.90;96.70;;;;;;4889925;29;20139;-75
2022/12/31 06:46:35;;;;;;;6.15;4.28;;;13.90;96.70;;;;;;4883079;29;20052;-74
2022/12/31 06:49:03;;;;;;;6.82;4.50;;;13.90;96.70;;;;;;4892457;29;20179;-74
2022/12/31 06:51:31;;;;;;;7.38;4.57;;;13.90;96.70;;;;;;4918406;29;20035;-74
2022/12/31 06:53:59;;;;;;;5.47;4.25;;;13.90;96.70;;;;;;4884790;29;20570;-73
2022/12/31 06:56:28;;;;;;;8.23;4.25;;;13.90;96.70;;;;;;4892614;29;20555;-73
2022/12/31 06:59:03;;;;;;;7.18;4.05;;;13.90;96.70;;;;;;4893533;29;20511;-73
2022/12/31 07:01:46;;;;;;;7.43;4.05;;;13.90;96.70;;;;;;4893267;29;20059;-73
2022/12/31 07:04:54;;;;;;;5.57;4.13;;;13.90;96.70;;;;;;4913141;29;20036;-73
2022/12/31 07:07:29;;;;;;;8.35;4.15;;;13.90;96.70;;;;;;4917455;29;20130;-73
2022/12/31 07:10:06;;;;;;;6.45;3.88;;;13.90;96.70;;;;;;4916558;29;20055;-74
2022/12/31 07:12:38;;;;;;;;;;;14.00;96.70;;;;;;4898142;29;20091;-74
2022/12/31 07:15:12;;;;;;;5.47;3.80;;;14.00;96.70;;;;;;4897276;29;19927;-74
2022/12/31 07:17:47;;;;;;;5.90;4.15;;;14.00;96.70;;;;;;4917603;29;20100;-74
2022/12/31 07:20:17;;;;;;;5.97;4.00;;;14.00;96.70;;;;;;4906618;29;20586;-72
2022/12/31 07:22:46;;;;;;;5.47;4.30;;;14.00;96.70;;;;;;4893832;29;20071;-73
2022/12/31 07:25:16;;;;;;;6.00;4.20;;;14.00;96.70;;;;;;4910026;29;20044;-75
2022/12/31 07:28:08;;;;;;;5.53;3.70;;;14.00;96.70;;;;;;4897081;29;20075;-74
2022/12/31 07:30:45;;;;;;;4.78;4.05;;;14.00;96.70;;;;;;4887438;29;20187;-73
2022/12/31 07:33:33;;;;;;;5.43;3.33;;;14.00;96.70;;;;;;4876755;29;20147;-74
2022/12/31 07:36:15;;;;;;;5.50;3.88;;;14.10;96.70;;;;;;4891903;29;20079;-74
2022/12/31 07:38:53;;;;;;;5.53;3.70;;;14.10;96.70;;;;;;4886959;29;20149;-74
2022/12/31 07:41:36;;;;;;;5.30;4.40;;;14.10;96.70;;;;;;4879720;29;20056;-75
2022/12/31 07:44:11;;;;;;;9.02;4.53;;;14.10;96.70;;;;;;4897169;29;20044;-74
2022/12/31 07:46:51;;;;;;;5.90;4.35;;;14.10;96.70;;;;;;4893939;29;20068;-75
2022/12/31 07:49:20;;;;;;;12.05;10.23;;;14.10;96.70;;;;;;4895014;29;20047;-76
2022/12/31 07:51:51;;;;;;;16.63;14.10;;;14.20;96.70;;;;;;4895645;29;20496;-76
2022/12/31 07:54:19;;;;;;;11.18;9.77;;;14.20;96.70;;;;;;4899265;29;20121;-76
2022/12/31 07:56:49;;;;;;;8.27;7.40;;;14.20;96.70;;;;;;4896350;29;20842;-76
2022/12/31 07:59:33;;;;;;;10.75;8.18;;;14.20;96.70;;;;;;4895129;29;20139;-76
2022/12/31 08:02:10;;;;;;;8.77;6.80;;;14.20;96.70;;;;;;4896417;29;20163;-76
2022/12/31 08:04:48;;;;;;;5.95;5.07;;;14.20;96.70;;;;;;4881023;29;20116;-75
2022/12/31 08:07:23;;;;;;;6.63;5.38;;;14.30;96.70;;;;;;4898971;29;20414;-75
2022/12/31 08:10:01;;;;;;;8.18;7.38;;;14.30;96.70;;;;;;4889133;29;20048;-77
2022/12/31 08:12:33;;;;;;;9.00;7.00;;;14.30;96.70;;;;;;4894687;29;20055;-77
2022/12/31 08:15:02;;;;;;;10.77;5.82;;;14.40;96.70;;;;;;4888781;29;20059;-76
2022/12/31 08:17:32;;;;;;;7.13;5.15;;;14.40;96.70;;;;;;4896313;29;20080;-76
2022/12/31 08:20:01;;;;;;;6.47;5.30;;;14.40;96.70;;;;;;4896228;29;20131;-76
2022/12/31 08:22:44;;;;;;;6.53;4.93;;;14.40;96.70;;;;;;4888684;29;20053;-76
2022/12/31 08:25:19;;;;;;;8.80;5.55;;;14.40;96.70;;;;;;4893398;29;20514;-75
2022/12/31 08:27:58;;;;;;;5.15;4.40;;;14.50;96.70;;;;;;4897831;29;20044;-76
2022/12/31 08:30:35;;;;;;;6.18;4.20;;;14.50;96.70;;;;;;4893766;29;20048;-76
2022/12/31 08:33:13;;;;;;;7.28;4.78;;;14.50;96.70;;;;;;4894188;29;20475;-76
2022/12/31 08:35:55;;;;;;;6.32;4.40;;;14.50;96.70;;;;;;4892946;29;20052;-74
2022/12/31 08:38:30;;;;;;;6.63;4.43;;;14.50;96.70;;;;;;4891943;29;20519;-74
2022/12/31 08:41:09;;;;;;;5.65;4.13;;;14.50;96.70;;;;;;4895452;29;20045;-73
2022/12/31 08:43:48;;;;;;;7.68;5.22;;;14.50;96.70;;;;;;4896235;29;20092;-74
2022/12/31 08:46:22;;;;;;;7.40;5.55;;;14.50;96.70;;;;;;4883715;29;20533;-74
2022/12/31 08:48:52;;;;;;;7.75;5.55;;;14.50;96.70;;;;;;4880824;29;20075;-74
2022/12/31 08:51:22;;;;;;;6.25;5.30;;;14.50;96.70;;;;;;4901174;29;20048;-74
2022/12/31 08:53:52;;;;;;;9.20;5.57;;;14.50;96.70;;;;;;4914075;29;20135;-74
2022/12/31 08:56:27;;;;;;;7.68;5.43;;;14.50;96.70;;;;;;4897678;29;20040;-73
2022/12/31 08:59:07;;;;;;;9.65;6.35;;;14.50;96.70;;;;;;4900251;29;20577;-74
2022/12/31 09:01:49;;;;;;;8.23;5.68;;;14.50;96.70;;;;;;4908867;29;20051;-73
2022/12/31 09:04:26;;;;;;;8.93;5.30;;;14.50;96.70;;;;;;4894368;29;20039;-73
2022/12/31 09:06:57;;;;;;;8.18;5.35;;;14.60;96.70;;;;;;4887385;29;20409;-75
2022/12/31 09:09:37;;;;;;;7.00;5.13;;;14.60;96.70;;;;;;4902880;29;20063;-74
2022/12/31 09:12:11;;;;;;;8.25;5.47;;;14.70;96.70;;;;;;4906107;29;20055;-74
2022/12/31 09:14:54;;;;;;;7.25;5.20;;;14.70;96.70;;;;;;4890765;29;20055;-75
2022/12/31 09:17:35;;;;;;;9.25;4.90;;;14.70;96.70;;;;;;4897956;29;20075;-76
2022/12/31 09:20:12;;;;;;;6.82;4.53;;;14.70;96.70;;;;;;4920876;29;20044;-76
2022/12/31 09:22:41;;;;;;;13.15;4.85;;;14.80;96.70;;;;;;4891628;29;20142;-76
2022/12/31 09:25:13;;;;;;;8.57;4.15;;;14.80;96.70;;;;;;4914451;29;20096;-76
2022/12/31 09:27:49;;;;;;;6.60;4.18;;;14.80;96.70;;;;;;4883501;29;20058;-75
2022/12/31 09:30:18;;;;;;;7.53;5.53;;;14.90;96.70;;;;;;4892870;29;20052;-75
2022/12/31 09:32:54;;;;;;;9.63;6.20;;;14.90;96.70;;;;;;4893835;29;20303;-75
2022/12/31 09:35:35;;;;;;;10.02;6.10;;;14.90;96.70;;;;;;4891939;29;20048;-74
2022/12/31 09:38:10;;;;;;;6.47;4.60;;;14.90;96.70;;;;;;4893657;29;20506;-74
2022/12/31 09:41:09;;;;;;;9.35;5.75;;;15.00;96.70;;;;;;4890508;29;20047;-74
2022/12/31 09:44:13;;;;;;;7.55;6.10;;;15.10;96.70;;;;;;4888973;29;20126;-72
2022/12/31 09:47:28;;;;;;;8.52;5.90;;;15.10;96.70;;;;;;4912648;29;20103;-73
2022/12/31 09:50:19;;;;;;;9.40;6.63;;;15.20;96.70;;;;;;4890753;29;20052;-72
2022/12/31 09:53:04;;;;;;;8.27;5.78;;;15.20;96.70;;;;;;4910416;29;20099;-72
2022/12/31 09:55:37;;;;;;;6.13;5.53;;;15.20;96.70;;;;;;4912488;29;20032;-73
2022/12/31 09:58:23;;;;;;;7.03;5.68;;;15.20;96.70;;;;;;4909817;29;20423;-73
2022/12/31 10:00:56;;;;;;;48.20;36.80;;;15.30;96.70;;;;;;4892851;29;20048;-73
2022/12/31 10:03:50;;;;;;;19.13;15.32;;;15.30;96.70;;;;;;4891243;29;20498;-75
2022/12/31 10:06:27;;;;;;;13.32;9.90;;;15.40;96.70;;;;;;4902108;29;20167;-74
2022/12/31 10:09:31;;;;;;;13.15;10.13;;;15.40;96.70;;;;;;4912704;29;20078;-75
2022/12/31 10:12:27;;;;;;;13.18;9.45;;;15.60;96.70;;;;;;4873790;29;20060;-74
2022/12/31 10:15:18;;;;;;;10.05;7.00;;;15.70;96.70;;;;;;4897574;29;20582;-73
2022/12/31 10:17:58;;;;;;;9.32;6.80;;;15.70;96.70;;;;;;4911695;29;20091;-73
2022/12/31 10:20:44;;;;;;;8.07;6.38;;;15.70;96.70;;;;;;4902054;29;20058;-74
2022/12/31 10:23:32;;;;;;;11.98;6.50;;;15.80;96.70;;;;;;4901703;29;20051;-74
2022/12/31 10:26:25;;;;;;;8.55;5.72;;;16.00;96.70;;;;;;4892149;29;20044;-72
2022/12/31 10:29:07;;;;;;;8.50;6.05;;;16.20;96.70;;;;;;4912539;29;20122;-73
2022/12/31 10:31:47;;;;;;;8.82;5.50;;;16.30;96.70;;;;;;4898534;29;20044;-72
2022/12/31 10:34:19;;;;;;;11.02;5.65;;;16.30;96.70;;;;;;4910975;29;20074;-73
2022/12/31 10:36:54;;;;;;;8.88;4.50;;;16.40;96.70;;;;;;4911314;29;20106;-72
2022/12/31 10:39:41;;;;;;;9.73;5.25;;;16.50;96.70;;;;;;4911777;29;20043;-72
2022/12/31 10:42:48;;;;;;;10.98;5.13;;;16.60;96.70;;;;;;4911560;29;20048;-73
2022/12/31 10:45:46;;;;;;;8.95;4.78;;;16.70;96.70;;;;;;4877349;29;20626;-73
2022/12/31 10:48:53;;;;;;;7.63;5.95;;;17.00;96.70;;;;;;4915295;29;20501;-77
2022/12/31 10:51:49;;;;;;;8.57;5.57;;;17.20;96.70;;;;;;4856124;29;20122;-73
2022/12/31 10:55:04;;;;;;;12.18;8.77;;;17.40;96.70;;;;;;4889742;29;20491;-73
2022/12/31 10:58:05;;;;;;;10.00;4.80;;;17.50;96.70;;;;;;4863701;29;20055;-76
2022/12/31 11:00:39;;;;;;;9.05;5.38;;;17.20;96.70;;;;;;4893574;29;20052;-73
2022/12/31 11:03:44;;;;;;;8.52;4.40;;;17.10;96.70;;;;;;4889380;29;20044;-73
2022/12/31 11:06:48;;;;;;;7.13;4.25;;;17.10;96.70;;;;;;4895803;29;20054;-76
2022/12/31 11:10:09;;;;;;;11.63;4.30;;;17.10;96.70;;;;;;4881941;29;20634;-76
2022/12/31 11:13:09;;;;;;;7.63;4.30;;;17.20;96.70;;;;;;4891817;29;20047;-76
2022/12/31 11:15:53;;;;;;;7.22;4.18;;;17.10;96.70;;;;;;4898028;29;20044;-75
2022/12/31 11:18:31;;;;;;;7.90;4.00;;;17.20;96.70;;;;;;4890610;29;20054;-75
2022/12/31 11:21:13;;;;;;;7.72;4.43;;;17.20;96.70;;;;;;4909825;29;20052;-76
2022/12/31 11:23:54;;;;;;;7.63;4.30;;;17.20;96.70;;;;;;4896662;29;20589;-75
2022/12/31 11:26:33;;;;;;;7.00;4.32;;;17.20;96.70;;;;;;4899339;29;20048;-76
2022/12/31 11:29:13;;;;;;;8.00;4.15;;;17.20;96.70;;;;;;4895757;29;20058;-76
2022/12/31 11:32:05;;;;;;;7.03;4.13;;;17.10;96.70;;;;;;4880176;29;20076;-76
2022/12/31 11:35:12;;;;;;;9.32;4.15;;;17.10;96.70;;;;;;4898029;29;20091;-76
2022/12/31 11:37:45;;;;;;;5.43;4.20;;;17.20;96.70;;;;;;4898346;29;20063;-75
2022/12/31 11:40:40;;;;;;;12.18;4.65;;;17.20;96.70;;;;;;4897680;29;20052;-75
2022/12/31 11:43:25;;;;;;;8.98;4.30;;;17.30;96.70;;;;;;4899213;29;20044;-74
2022/12/31 11:46:26;;;;;;;9.10;4.07;;;17.30;96.70;;;;;;4920017;29;20072;-74
2022/12/31 11:49:07;;;;;;;7.45;3.33;;;17.40;96.70;;;;;;4895398;29;20137;-75
2022/12/31 11:52:06;;;;;;;9.60;4.22;;;17.40;96.70;;;;;;4917632;29;20051;-74
2022/12/31 11:54:59;;;;;;;6.07;3.90;;;17.50;96.70;;;;;;4896019;29;20504;-75
2022/12/31 11:57:33;;;;;;;7.40;3.65;;;17.40;96.70;;;;;;4918258;29;20050;-75
2022/12/31 12:00:11;;;;;;;11.20;4.07;;;17.40;96.70;;;;;;4895698;29;20055;-75
2022/12/31 12:02:44;;;;;;;8.10;4.70;;;17.40;96.70;;;;;;4919790;29;20060;-73
2022/12/31 12:05:15;;;;;;;9.38;4.82;;;17.40;96.70;;;;;;4916795;29;20044;-75
2022/12/31 12:07:45;;;;;;;10.95;5.15;;;17.40;96.70;;;;;;4920997;29;20036;-74
2022/12/31 12:10:22;;;;;;;8.43;4.72;;;17.40;96.70;;;;;;4910780;29;20048;-74
2022/12/31 12:12:59;;;;;;;11.63;5.50;;;17.40;96.70;;;;;;4891017;29;20048;-74
2022/12/31 12:15:30;;;;;;;10.70;6.20;;;17.40;96.70;;;;;;4905648;29;20040;-74
2022/12/31 12:18:07;;;;;;;10.75;6.05;;;17.40;96.70;;;;;;4894002;29;20056;-74
2022/12/31 12:20:37;;;;;;;11.20;5.97;;;17.40;96.70;;;;;;4894350;29;20040;-75
2022/12/31 12:23:20;;;;;;;10.32;6.03;;;17.40;96.70;;;;;;4915582;29;20154;-74
2022/12/31 12:25:49;;;;;;;6.97;5.68;;;17.40;96.70;;;;;;4909524;29;20048;-75
2022/12/31 12:28:20;;;;;;;8.18;5.95;;;17.40;96.70;;;;;;4890342;29;20067;-75
2022/12/31 12:30:57;;;;;;;10.27;6.53;;;17.40;96.70;;;;;;4883237;29;20525;-75
2022/12/31 12:33:28;;;;;;;8.23;5.35;;;17.50;96.70;;;;;;4910943;29;20135;-75
2022/12/31 12:36:07;;;;;;;10.23;5.95;;;17.50;96.70;;;;;;4926845;29;20047;-75
2022/12/31 12:38:38;;;;;;;9.15;5.65;;;17.60;96.70;;;;;;4908518;29;20052;-75
2022/12/31 12:41:10;;;;;;;11.88;6.05;;;17.60;96.70;;;;;;4897936;29;20579;-75
2022/12/31 12:43:39;;;;;;;9.77;5.00;;;17.70;96.70;;;;;;4890867;29;20138;-75
2022/12/31 12:46:30;;;;;;;6.53;5.22;;;17.70;96.70;;;;;;4908762;29;20127;-75
2022/12/31 12:48:59;;;;;;;8.27;4.90;;;17.80;96.70;;;;;;4908445;29;20051;-76
2022/12/31 12:51:38;;;;;;;12.65;5.38;;;17.80;96.70;;;;;;4900336;29;20119;-74
2022/12/31 12:54:19;;;;;;;7.10;4.82;;;17.90;96.70;;;;;;4899990;29;20122;-76
2022/12/31 12:56:58;;;;;;;9.07;4.80;;;17.90;96.70;;;;;;4916514;29;20111;-74
2022/12/31 12:59:52;;;;;;;8.02;4.50;;;17.90;96.70;;;;;;4900286;29;20130;-74
2022/12/31 13:02:56;;;;;;;11.02;4.80;;;18.00;96.70;;;;;;4883714;29;20130;-74
2022/12/31 13:05:37;;;;;;;7.95;4.00;;;18.20;96.70;;;;;;4911990;29;20131;-75
2022/12/31 13:08:21;;;;;;;9.90;3.95;;;18.40;96.70;;;;;;4891257;29;20107;-75
2022/12/31 13:11:06;;;;;;;8.10;4.30;;;18.40;96.70;;;;;;4915173;29;20043;-74
2022/12/31 13:13:42;;;;;;;6.65;3.30;;;18.50;96.70;;;;;;4915114;29;20047;-74
2022/12/31 13:16:21;;;;;;;9.85;3.33;;;18.50;96.70;;;;;;4919726;29;20052;-75
2022/12/31 13:18:57;;;;;;;7.10;2.90;;;18.40;96.70;;;;;;4891898;29;20052;-75
2022/12/31 13:21:36;;;;;;;5.78;2.78;;;18.40;96.70;;;;;;4907842;29;20139;-74
2022/12/31 13:24:17;;;;;;;5.38;2.67;;;18.50;96.70;;;;;;4908740;29;20052;-75
2022/12/31 13:26:53;;;;;;;9.45;5.00;;;18.50;96.70;;;;;;4913069;29;20099;-75
2022/12/31 13:29:27;;;;;;;10.38;4.15;;;18.50;96.70;;;;;;4885196;29;20056;-75
2022/12/31 13:31:59;;;;;;;8.30;3.35;;;18.40;96.70;;;;;;4898886;29;20117;-75
2022/12/31 13:34:31;;;;;;;8.05;2.70;;;18.40;96.70;;;;;;4898218;29;20058;-75
2022/12/31 13:37:04;;;;;;;6.25;2.40;;;18.30;96.70;;;;;;4880673;29;20078;-75